Time;durP1;ratioP1;P1;durP2;ratioP2;P2;SDS_P1;SDS_P2;PMS_P1;PMS_P2;Temp;Humidity;BMP_temperature;BMP_pressure;BME280_temperature;BME280_humidity;BME280_pressure;Samples;Min_cycle;Max_cycle;Signal;HPM_P1;HPM_P2
2022/05/04 00:01:55;;;;;;;5.75;3.53;;;;;;;21.11;44.59;101644.13;5094866;28;20078;-82
2022/05/04 00:04:21;;;;;;;3.65;3.22;;;;;;;21.27;44.50;101642.13;5093678;28;20268;-80
2022/05/04 00:06:47;;;;;;;4.65;3.17;;;;;;;21.29;44.32;101639.78;5094884;28;20024;-79
2022/05/04 00:09:12;;;;;;;3.55;3.15;;;;;;;21.21;44.62;101648.31;5093644;28;20016;-80
2022/05/04 00:11:40;;;;;;;4.38;3.38;;;;;;;21.33;44.37;101648.22;5095168;28;20081;-87
2022/05/04 00:14:06;;;;;;;5.85;3.33;;;;;;;21.31;44.42;101636.63;5094839;28;20050;-85
2022/05/04 00:16:31;;;;;;;5.97;3.28;;;;;;;21.54;43.83;101637.56;5094885;28;20493;-81
2022/05/04 00:18:57;;;;;;;5.03;3.28;;;;;;;21.38;44.14;101642.34;5094756;28;20032;-86
2022/05/04 00:21:23;;;;;;;4.95;3.42;;;;;;;21.40;44.34;101628.09;5093285;28;20042;-81
2022/05/04 00:23:48;;;;;;;4.18;3.35;;;;;;;21.50;43.80;101631.09;5094756;28;20497;-79
2022/05/04 00:26:14;;;;;;;5.05;2.70;;;;;;;21.36;44.35;101628.00;5094768;28;20492;-81
2022/05/04 00:28:39;;;;;;;8.27;3.25;;;;;;;21.57;43.87;101622.91;5094656;28;20028;-79
2022/05/04 00:31:05;;;;;;;6.22;2.92;;;;;;;21.69;43.71;101627.53;5094755;28;20022;-79
2022/05/04 00:33:31;;;;;;;5.75;2.95;;;;;;;21.78;43.44;101621.72;5094395;28;20031;-86
2022/05/04 00:35:56;;;;;;;6.47;3.20;;;;;;;21.50;44.17;101622.75;5094312;28;20028;-81
2022/05/04 00:38:22;;;;;;;2.95;2.50;;;;;;;21.57;43.88;101617.34;5094248;28;20039;-82
2022/05/04 00:40:47;;;;;;;3.90;2.90;;;;;;;21.57;43.85;101619.31;5094459;28;20020;-85
2022/05/04 00:43:24;;;;;;;3.80;2.97;;;;;;;21.70;43.46;101622.75;5094411;28;20032;-80
2022/05/04 00:45:50;;;;;;;3.97;2.50;;;;;;;21.64;43.64;101616.69;5093230;28;20109;-87
2022/05/04 00:48:16;;;;;;;3.65;3.08;;;;;;;21.16;44.90;101621.63;5094178;28;20028;-79
2022/05/04 00:50:43;;;;;;;6.00;3.63;;;;;;;21.46;44.09;101621.91;5094327;28;20481;-84
2022/05/04 00:53:10;;;;;;;4.60;3.50;;;;;;;21.45;44.07;101620.25;5093713;28;20020;-81
2022/05/04 00:55:35;;;;;;;7.03;3.72;;;;;;;21.47;44.03;101609.59;5093894;28;20027;-81
2022/05/04 01:00:48;;;;;;;4.40;3.67;;;;;;;21.34;44.43;101613.69;5094045;28;20497;-81
2022/05/04 01:03:14;;;;;;;5.25;3.40;;;;;;;21.32;44.55;101607.69;5061161;28;20029;-83
2022/05/04 01:05:40;;;;;;;6.03;3.72;;;;;;;;;;5053615;28;20155;-81
2022/05/04 01:08:05;;;;;;;5.13;3.88;;;;;;;21.46;43.95;101610.78;5090444;28;20078;-87
2022/05/04 01:10:31;;;;;;;6.10;3.60;;;;;;;21.13;45.01;101613.19;5091712;28;20506;-81
2022/05/04 01:12:57;;;;;;;10.32;4.45;;;;;;;21.16;44.80;101612.44;5092460;28;20494;-81
2022/05/04 01:15:23;;;;;;;5.18;4.20;;;;;;;21.21;44.54;101604.63;5093565;28;20474;-83
2022/05/04 01:17:49;;;;;;;6.47;4.35;;;;;;;21.23;44.58;101607.03;5093678;28;20492;-80
2022/05/04 01:20:16;;;;;;;4.93;4.05;;;;;;;21.15;44.59;101605.28;5092437;28;20470;-79
2022/05/04 01:22:42;;;;;;;5.10;4.13;;;;;;;21.13;44.75;101600.09;5093758;28;20028;-83
2022/05/04 01:25:09;;;;;;;6.15;4.18;;;;;;;20.82;45.63;101597.41;5092313;28;20032;-79
2022/05/04 01:27:35;;;;;;;6.75;4.47;;;;;;;20.89;45.35;101603.13;5092354;28;20028;-81
2022/05/04 01:30:01;;;;;;;5.00;4.22;;;;;;;20.80;45.82;101594.22;5093579;28;20454;-87
2022/05/04 01:32:26;;;;;;;5.93;4.28;;;;;;;20.89;45.45;101603.94;5093324;28;20028;-86
2022/05/04 01:34:52;;;;;;;4.55;3.90;;;;;;;21.03;45.22;101595.13;5093190;28;20027;-83
2022/05/04 01:37:18;;;;;;;6.40;4.07;;;;;;;20.94;45.55;101598.13;5093071;28;20040;-79
2022/05/04 01:39:43;;;;;;;5.20;3.40;;;;;;;21.11;45.18;101596.09;5093360;28;20099;-81
2022/05/04 01:42:13;;;;;;;4.30;3.38;;;;;;;21.05;45.45;101596.38;5093387;28;20024;-80
2022/05/04 01:44:41;;;;;;;4.43;3.33;;;;;;;21.01;45.77;101597.47;5093229;28;20020;-80
2022/05/04 01:47:11;;;;;;;4.68;3.55;;;;;;;21.06;45.71;101591.59;5091926;28;20035;-80
2022/05/04 01:49:36;;;;;;;;;;;;;;;20.81;46.31;101585.50;5093628;28;20475;-81
2022/05/04 01:52:02;;;;;;;4.32;3.83;;;;;;;20.92;45.92;101580.19;5093081;28;19968;-85
2022/05/04 01:54:28;;;;;;;6.45;3.47;;;;;;;20.97;46.06;101583.50;5093654;28;20036;-88
2022/05/04 01:56:54;;;;;;;4.78;3.47;;;;;;;21.05;45.91;101574.13;5093223;28;20439;-87
2022/05/04 01:59:20;;;;;;;6.68;3.70;;;;;;;21.01;46.04;101572.47;5064600;28;20028;-85
2022/05/04 02:01:46;;;;;;;4.18;2.40;;;;;;;20.87;46.07;101575.72;5082012;28;20417;-85
2022/05/04 02:04:13;;;;;;;3.88;2.45;;;;;;;20.83;46.57;101568.47;5092242;28;20028;-85
2022/05/04 02:06:38;;;;;;;4.30;3.00;;;;;;;20.84;46.56;101570.88;5091633;28;20028;-85
2022/05/04 02:09:06;;;;;;;3.47;2.53;;;;;;;21.03;46.06;101564.56;5082610;28;20025;-84
2022/05/04 02:11:32;;;;;;;5.43;2.97;;;;;;;21.02;46.22;101566.53;5076403;28;20037;-83
2022/05/04 02:14:02;;;;;;;3.97;2.70;;;;;;;20.70;47.00;101565.00;5076159;28;20524;-82
2022/05/04 02:16:31;;;;;;;3.97;2.30;;;;;;;21.10;46.12;101561.13;5082660;28;20111;-81
2022/05/04 02:18:57;;;;;;;2.80;2.05;;;;;;;20.99;46.45;101564.47;5092687;28;20029;-85
2022/05/04 02:21:23;;;;;;;3.22;2.40;;;;;;;21.20;45.95;101563.31;5092690;28;20020;-81
2022/05/04 02:23:49;;;;;;;2.92;2.50;;;;;;;21.16;46.17;101552.16;5092672;28;20031;-85
2022/05/04 02:26:14;;;;;;;2.97;2.15;;;;;;;21.20;46.02;101553.00;5092835;28;20020;-82
2022/05/04 02:28:40;;;;;;;2.42;1.60;;;;;;;21.10;46.42;101559.16;5091395;28;20074;-80
2022/05/04 02:31:06;;;;;;;2.42;1.80;;;;;;;21.17;46.41;101552.94;5091093;28;20381;-79
2022/05/04 02:33:31;;;;;;;3.55;1.73;;;;;;;21.21;46.38;101549.06;5078472;28;20032;-79
2022/05/04 02:38:41;;;;;;;1.90;1.50;;;;;;;21.15;46.39;101558.84;5072059;28;20039;-81
2022/05/04 02:41:07;;;;;;;2.67;1.60;;;;;;;21.27;46.31;101566.25;5071855;28;20386;-84
2022/05/04 02:43:33;;;;;;;2.30;1.50;;;;;;;21.34;46.16;101569.22;5062592;28;20028;-81
2022/05/04 02:46:15;;;;;;;2.45;1.85;;;;;;;21.03;47.09;101570.13;5072360;28;20078;-84
2022/05/04 02:48:41;;;;;;;2.50;1.60;;;;;;;21.18;46.67;101565.66;5064197;28;20072;-86
2022/05/04 02:51:06;;;;;;;3.15;2.42;;;;;;;21.38;46.23;101563.72;5060178;28;20017;-81
2022/05/04 02:53:32;;;;;;;3.33;2.00;;;;;;;21.46;46.42;101551.56;5071660;28;20046;-80
2022/05/04 02:55:57;;;;;;;5.75;3.28;;;;;;;21.46;46.14;101554.34;5072086;28;20413;-82
2022/05/04 02:58:23;;;;;;;4.40;3.03;;;;;;;21.39;46.49;101551.44;5071773;28;20506;-79
2022/05/04 03:00:48;;;;;;;5.53;3.33;;;;;;;21.43;46.29;101547.53;5072361;28;20378;-79
2022/05/04 03:03:14;;;;;;;4.88;3.00;;;;;;;21.41;46.54;101549.09;5072360;28;20410;-81
2022/05/04 03:05:39;;;;;;;6.55;3.53;;;;;;;21.36;46.80;101549.38;5071939;28;20021;-79
2022/05/04 03:08:06;;;;;;;7.18;3.03;;;;;;;21.62;46.07;101545.94;5072100;28;20029;-80
2022/05/04 03:11:54;;;;;;;7.15;3.90;;;;;;;21.54;46.59;101551.34;5072116;28;20556;-80
2022/05/04 03:13:17;;;;;;;5.97;3.80;;;;;;;21.43;46.94;101553.09;5071997;28;20032;-84
2022/05/04 03:15:42;;;;;;;5.90;4.20;;;;;;;21.62;46.29;101563.41;5071956;28;20155;-84
2022/05/04 03:18:08;;;;;;;7.25;4.18;;;;;;;21.37;47.07;101557.34;5074363;28;20024;-82
2022/05/04 03:20:33;;;;;;;6.32;4.40;;;;;;;21.39;46.95;101560.59;5074312;28;20486;-80
2022/05/04 03:22:59;;;;;;;6.32;4.78;;;;;;;21.40;46.98;101562.19;5075542;28;20020;-80
2022/05/04 03:25:25;;;;;;;6.68;4.45;;;;;;;21.40;46.90;101556.63;5086592;28;20028;-82
2022/05/04 03:27:52;;;;;;;6.75;4.32;;;;;;;21.28;47.36;101563.13;5094244;28;20028;-82
2022/05/04 03:30:17;;;;;;;5.47;3.88;;;;;;;21.24;47.42;101548.34;5095790;28;20024;-79
2022/05/04 03:32:43;;;;;;;4.47;3.65;;;;;;;21.28;47.33;101548.44;5095404;28;20031;-81
2022/05/04 03:35:09;;;;;;;5.22;3.47;;;;;;;21.24;47.84;101550.31;5095798;28;20032;-79
2022/05/04 03:37:34;;;;;;;5.82;3.38;;;;;;;21.22;47.70;101545.09;5094146;28;20074;-84
2022/05/04 03:40:00;;;;;;;7.88;3.50;;;;;;;21.21;47.64;101553.81;5095527;28;20055;-80
2022/05/04 03:42:26;;;;;;;3.70;2.80;;;;;;;21.17;47.74;101552.94;5095564;28;20402;-84
2022/05/04 03:44:51;;;;;;;5.03;2.70;;;;;;;21.20;47.64;101543.88;5095328;28;20071;-79
2022/05/04 03:47:17;;;;;;;4.05;2.60;;;;;;;21.24;47.51;101544.75;5095319;28;20492;-80
2022/05/04 03:49:43;;;;;;;3.53;2.15;;;;;;;21.15;47.98;101555.28;5095443;28;20063;-80
2022/05/04 03:52:09;;;;;;;4.45;2.30;;;;;;;21.36;47.42;101555.75;5095262;28;20099;-85
2022/05/04 03:54:35;;;;;;;2.65;2.13;;;;;;;21.58;46.85;101557.75;5093773;28;20394;-80
2022/05/04 03:57:01;;;;;;;2.85;1.98;;;;;;;21.51;46.84;101545.69;5095206;28;20024;-79
2022/05/04 03:59:26;;;;;;;3.92;1.90;;;;;;;21.36;47.10;101543.81;5095105;28;20024;-80
2022/05/04 04:01:52;;;;;;;2.95;1.42;;;;;;;21.29;47.16;101544.47;5094662;28;20036;-81
2022/05/04 04:04:17;;;;;;;3.88;1.65;;;;;;;20.99;48.08;101536.69;5094970;28;20031;-80
2022/05/04 04:06:43;;;;;;;2.65;1.52;;;;;;;21.11;47.73;101543.28;5094993;28;20363;-80
2022/05/04 04:09:09;;;;;;;1.77;1.30;;;;;;;20.85;48.20;101544.72;5094744;28;20050;-80
2022/05/04 04:11:34;;;;;;;1.63;1.40;;;;;;;20.88;48.20;101549.56;5093790;28;20465;-81
2022/05/04 04:14:00;;;;;;;1.67;1.20;;;;;;;20.77;48.42;101552.09;5094852;28;20035;-81
2022/05/04 04:16:26;;;;;;;3.00;1.60;;;;;;;20.86;48.34;101549.13;5094965;28;20028;-81
2022/05/04 04:18:52;;;;;;;2.63;1.30;;;;;;;21.02;47.79;101549.06;5094713;28;20390;-80
2022/05/04 04:24:02;;;;;;;4.38;1.55;;;;;;;20.88;48.40;101557.09;5094723;28;20056;-83
2022/05/04 04:26:27;;;;;;;2.97;1.70;;;;;;;20.87;48.48;101556.28;5093104;28;20023;-79
2022/05/04 04:28:53;;;;;;;2.03;1.23;;;;;;;21.13;47.98;101549.28;5093830;28;20034;-80
2022/05/04 04:31:19;;;;;;;3.35;1.42;;;;;;;21.16;47.60;101548.53;5094173;28;20031;-79
2022/05/04 04:33:44;;;;;;;2.70;1.40;;;;;;;20.80;48.31;101558.91;5094369;28;20393;-80
2022/05/04 04:36:10;;;;;;;3.17;1.20;;;;;;;20.96;47.82;101559.66;5094151;28;20448;-81
2022/05/04 04:38:36;;;;;;;4.03;1.50;;;;;;;20.88;47.96;101552.34;5093024;28;20028;-79
2022/05/04 04:41:01;;;;;;;2.58;1.23;;;;;;;20.86;47.95;101562.22;5094350;28;20610;-80
2022/05/04 04:43:27;;;;;;;2.40;1.42;;;;;;;20.96;47.53;101565.22;5094294;28;20040;-84
2022/05/04 04:45:53;;;;;;;3.22;1.10;;;;;;;21.01;47.31;101558.56;5094217;28;20040;-80
2022/05/04 04:48:18;;;;;;;1.50;1.10;;;;;;;20.64;48.44;101563.69;5094076;28;20028;-84
2022/05/04 04:50:48;;;;;;;3.42;1.25;;;;;;;20.69;48.25;101566.97;5094150;28;20035;-80
2022/05/04 04:53:14;;;;;;;2.88;1.60;;;;;;;20.81;47.83;101568.03;5092668;28;20466;-81
2022/05/04 04:55:41;;;;;;;2.55;1.40;;;;;;;20.64;48.12;101564.50;5092526;28;20482;-80
2022/05/04 04:58:07;;;;;;;5.10;1.65;;;;;;;20.78;47.42;101575.09;5094148;28;20020;-80
2022/05/04 05:00:33;;;;;;;3.55;1.77;;;;;;;20.74;47.91;101577.00;5094060;28;20769;-86
2022/05/04 05:02:58;;;;;;;3.72;1.80;;;;;;;20.76;47.85;101583.00;5094318;28;20031;-84
2022/05/04 05:05:24;;;;;;;3.72;1.65;;;;;;;20.76;47.85;101569.91;5093816;28;20442;-85
2022/05/04 05:07:50;;;;;;;2.50;1.40;;;;;;;20.75;47.79;101581.41;5093851;28;20032;-80
2022/05/04 05:10:16;;;;;;;7.85;1.75;;;;;;;20.73;47.87;101586.50;5093896;28;20039;-79
2022/05/04 05:12:41;;;;;;;6.57;1.77;;;;;;;20.76;47.66;101574.66;5093963;28;20035;-79
2022/05/04 05:17:52;;;;;;;5.68;1.45;;;;;;;20.47;47.91;101587.88;5093786;28;20398;-84
2022/05/04 05:20:18;;;;;;;3.35;1.30;;;;;;;20.56;47.72;101581.34;5093576;28;20024;-79
2022/05/04 05:22:43;;;;;;;4.97;1.75;;;;;;;20.45;48.04;101590.22;5093684;28;20527;-80
2022/05/04 05:25:09;;;;;;;7.35;1.65;;;;;;;20.54;47.72;101584.47;5093192;28;20056;-84
2022/05/04 05:27:38;;;;;;;3.63;1.73;;;;;;;20.63;47.38;101598.16;5092134;28;20611;-83
2022/05/04 05:30:05;;;;;;;7.15;1.77;;;;;;;20.85;46.82;101591.94;5093308;28;20394;-81
2022/05/04 05:32:30;;;;;;;7.30;1.15;;;;;;;20.95;46.71;101593.38;5091942;28;20470;-86
2022/05/04 05:34:56;;;;;;;6.03;0.95;;;;;;;20.68;46.89;101595.13;5093288;28;20032;-80
2022/05/04 05:37:22;;;;;;;11.10;1.75;;;;;;;20.95;46.14;101593.38;5093064;28;20048;-83
2022/05/04 05:39:48;;;;;;;8.93;1.40;;;;;;;21.25;45.76;101593.63;5091069;28;20035;-82
2022/05/04 05:42:14;;;;;;;4.78;1.20;;;;;;;21.39;45.19;101599.50;5091834;28;20031;-80
2022/05/04 05:44:40;;;;;;;1.90;0.45;;;;;;;21.62;44.59;101601.53;5093149;28;20474;-85
2022/05/04 05:47:06;;;;;;;6.15;1.00;;;;;;;21.44;44.25;101601.16;5091782;28;20027;-80
2022/05/04 05:49:32;;;;;;;3.35;0.65;;;;;;;21.53;43.87;101610.88;5092888;28;20111;-79
2022/05/04 05:51:58;;;;;;;1.95;0.77;;;;;;;21.35;43.81;101609.72;5092978;28;20081;-79
2022/05/04 05:54:24;;;;;;;4.40;0.55;;;;;;;21.50;43.53;101617.19;5091608;28;20047;-80
2022/05/04 05:56:49;;;;;;;2.20;0.60;;;;;;;21.55;43.06;101621.66;5091834;28;20420;-77
2022/05/04 05:59:15;;;;;;;3.90;1.27;;;;;;;21.65;42.92;101617.47;5092975;28;20095;-79
2022/05/04 06:01:41;;;;;;;0.50;0.50;;;;;;;21.57;42.80;101617.34;5092675;28;20034;-79
2022/05/04 06:04:07;;;;;;;5.60;0.90;;;;;;;21.54;42.63;101609.75;5092789;28;20051;-79
2022/05/04 06:06:33;;;;;;;1.33;0.50;;;;;;;21.72;42.21;101612.88;5092618;28;20055;-79
2022/05/04 06:08:58;;;;;;;26.85;3.92;;;;;;;21.60;42.60;101611.03;5092752;28;20020;-79
2022/05/04 06:11:24;;;;;;;7.85;1.20;;;;;;;21.66;42.52;101616.31;5092621;28;20111;-79
2022/05/04 06:13:53;;;;;;;5.07;1.10;;;;;;;21.73;42.14;101624.78;5062614;28;20040;-79
2022/05/04 06:16:19;;;;;;;4.85;1.40;;;;;;;21.83;42.02;101624.19;5057778;28;20032;-79
2022/05/04 06:18:45;;;;;;;4.68;1.02;;;;;;;21.85;42.00;101622.66;5092890;28;20025;-80
2022/05/04 06:21:10;;;;;;;7.03;1.00;;;;;;;21.80;42.22;101616.59;5092545;28;20478;-79
2022/05/04 06:23:36;;;;;;;2.67;1.02;;;;;;;21.84;42.21;101614.69;5092640;28;20051;-79
2022/05/04 06:26:02;;;;;;;10.65;1.17;;;;;;;21.80;42.43;101622.16;5091237;28;20030;-79
2022/05/04 06:28:27;;;;;;;6.60;1.52;;;;;;;21.83;42.27;101629.75;5092675;28;20028;-79
2022/05/04 06:36:21;;;;;;;3.15;1.05;;;;;;;21.84;42.47;101634.16;5092502;28;20077;-87
2022/05/04 06:38:47;;;;;;;2.85;1.08;;;;;;;22.03;42.03;101638.88;5093116;28;20028;-87
2022/05/04 06:41:14;;;;;;;3.33;0.90;;;;;;;21.96;42.10;101631.19;5092886;28;20474;-85
2022/05/04 06:43:40;;;;;;;0.93;0.63;;;;;;;21.65;42.20;101640.53;5092947;28;20028;-84
2022/05/04 06:46:06;;;;;;;5.45;1.00;;;;;;;21.53;42.72;101644.25;5093923;28;20560;-89
2022/05/04 06:48:31;;;;;;;4.78;1.23;;;;;;;21.37;42.56;101646.31;5092829;28;20111;-78
2022/05/04 06:50:57;;;;;;;5.60;1.70;;;;;;;21.66;41.88;101650.47;5094715;28;20020;-77
2022/05/04 06:53:23;;;;;;;3.70;1.10;;;;;;;21.68;42.03;101655.66;5097048;28;20029;-78
2022/05/04 06:55:48;;;;;;;12.02;2.10;;;;;;;21.61;41.90;101656.31;5097435;28;20032;-90
2022/05/04 06:58:14;;;;;;;1.02;0.52;;;;;;;21.53;41.96;101651.78;5096579;28;20028;-80
2022/05/04 07:00:40;;;;;;;0.65;0.50;;;;;;;21.50;42.11;101647.78;5095799;28;20099;-78
2022/05/04 07:03:05;;;;;;;1.65;0.70;;;;;;;21.62;41.76;101651.59;5095247;28;20016;-86
2022/05/04 07:05:31;;;;;;;1.23;0.50;;;;;;;21.88;41.57;101652.50;5094849;28;20518;-80
2022/05/04 07:07:56;;;;;;;2.45;0.50;;;;;;;22.02;41.25;101654.78;5097275;28;20020;-89
2022/05/04 07:10:22;;;;;;;2.83;0.98;;;;;;;22.07;40.78;101670.38;5081715;28;20486;-80
2022/05/04 07:12:48;;;;;;;3.47;0.60;;;;;;;22.08;40.85;101672.81;5074735;28;20016;-80
2022/05/04 07:15:14;;;;;;;6.50;0.80;;;;;;;21.92;40.96;101680.44;5074278;28;20024;-83
2022/05/04 07:17:40;;;;;;;1.05;0.40;;;;;;;22.10;40.30;101678.81;5076946;28;20103;-83
2022/05/04 07:20:06;;;;;;;2.75;0.63;;;;;;;22.19;40.12;101695.25;5074723;28;20017;-80
2022/05/04 07:22:32;;;;;;;10.80;1.80;;;;;;;22.15;39.88;101699.97;5070766;28;20380;-82
2022/05/04 07:24:58;;;;;;;1.85;0.50;;;;;;;22.08;39.74;101700.63;5075516;28;20031;-81
2022/05/04 07:27:24;;;;;;;2.85;0.65;;;;;;;22.39;38.87;101704.38;5086225;28;20490;-81
2022/05/04 07:29:49;;;;;;;1.95;0.40;;;;;;;22.39;38.92;101701.59;5085025;28;21898;-80
2022/05/04 07:32:15;;;;;;;3.28;0.80;;;;;;;22.42;38.82;101706.41;5094244;28;20024;-82
2022/05/04 07:34:40;;;;;;;4.13;0.60;;;;;;;22.53;38.65;101717.78;5095583;28;20035;-87
2022/05/04 07:37:06;;;;;;;4.20;0.70;;;;;;;22.58;38.55;101715.44;5095669;28;20048;-81
2022/05/04 07:42:26;;;;;;;4.47;0.82;;;;;;;22.30;39.52;101717.75;5095671;28;20027;-86
2022/05/04 07:45:04;;;;;;;2.53;0.75;;;;;;;22.44;39.57;101723.56;5094011;28;20028;-81
2022/05/04 07:47:32;;;;;;;2.60;0.60;;;;;;;22.53;39.07;101731.69;5087879;28;20043;-87
2022/05/04 07:49:58;;;;;;;9.85;1.92;;;;;;;22.49;39.73;101714.09;5081425;28;20103;-81
2022/05/04 07:52:24;;;;;;;1.27;0.35;;;;;;;22.48;39.87;101720.84;5095608;28;20055;-80
2022/05/04 07:54:51;;;;;;;2.47;0.55;;;;;;;22.39;39.93;101723.88;5095403;28;20032;-87
2022/05/04 07:57:16;;;;;;;4.47;0.60;;;;;;;22.32;40.25;101726.53;5092637;28;20038;-80
2022/05/04 07:59:42;;;;;;;2.33;0.32;;;;;;;22.28;40.34;101728.44;5075158;28;20104;-81
2022/05/04 08:04:52;;;;;;;3.15;0.93;;;;;;;22.23;40.71;101728.75;5079619;28;20093;-80
2022/05/04 08:07:19;;;;;;;2.85;0.70;;;;;;;22.19;41.08;101727.88;5093760;28;20024;-80
2022/05/04 08:09:45;;;;;;;2.45;0.52;;;;;;;22.41;40.87;101727.91;5080494;28;20028;-82
2022/05/04 08:12:12;;;;;;;1.42;0.57;;;;;;;22.60;40.62;101718.69;5073396;28;20085;-81
2022/05/04 08:14:41;;;;;;;1.95;0.60;;;;;;;22.59;40.32;101713.47;5072995;28;20029;-81
2022/05/04 08:17:07;;;;;;;1.60;0.57;;;;;;;22.39;40.64;101712.75;5092017;28;20398;-80
2022/05/04 08:19:33;;;;;;;1.10;0.40;;;;;;;22.66;39.88;101708.81;5093482;28;20024;-81
2022/05/04 08:21:59;;;;;;;1.60;0.60;;;;;;;22.61;40.29;101725.88;5093358;28;20604;-81
2022/05/04 08:24:25;;;;;;;5.30;1.50;;;;;;;23.03;39.26;101724.97;5093581;28;20115;-85
2022/05/04 08:26:50;;;;;;;0.57;0.52;;;;;;;22.88;39.49;101734.28;5093099;28;20119;-84
2022/05/04 08:29:16;;;;;;;3.03;0.88;;;;;;;22.60;39.34;101724.25;5094139;28;20089;-81
2022/05/04 08:31:42;;;;;;;0.30;0.30;;;;;;;22.63;39.34;101733.84;5094336;28;20032;-81
2022/05/04 08:34:08;;;;;;;1.27;0.50;;;;;;;22.30;39.50;101737.25;5094110;28;20092;-80
2022/05/04 08:36:37;;;;;;;2.05;0.43;;;;;;;22.66;39.06;101739.47;5092527;28;20069;-80
2022/05/04 08:39:07;;;;;;;3.15;0.85;;;;;;;22.72;39.04;101748.31;5093082;28;20029;-86
2022/05/04 08:41:42;;;;;;;3.45;0.50;;;;;;;22.81;38.96;101753.66;5094078;28;20039;-81
2022/05/04 08:44:11;;;;;;;5.57;1.13;;;;;;;22.99;38.99;101746.44;5094313;28;20039;-83
2022/05/04 08:46:44;;;;;;;2.30;0.80;;;;;;;22.92;38.45;101740.75;5092686;28;20515;-85
2022/05/04 08:49:12;;;;;;;4.50;0.95;;;;;;;22.96;38.41;101752.75;5093014;28;20089;-86
2022/05/04 08:51:39;;;;;;;1.65;0.70;;;;;;;23.12;38.31;101752.59;5094500;28;20020;-81
2022/05/04 08:54:07;;;;;;;2.15;0.80;;;;;;;23.30;37.51;101753.69;5093778;28;20035;-87
2022/05/04 08:56:34;;;;;;;2.60;0.60;;;;;;;23.48;37.02;101757.53;5094438;28;20042;-81
2022/05/04 08:59:07;;;;;;;1.15;0.60;;;;;;;23.66;36.61;101766.19;5093227;28;20376;-80
2022/05/04 09:01:39;;;;;;;1.05;0.50;;;;;;;23.31;36.78;101769.22;5092853;28;20128;-84
2022/05/04 09:04:06;;;;;;;1.23;0.70;;;;;;;23.66;36.30;101766.19;5094128;28;20028;-80
2022/05/04 09:06:34;;;;;;;0.77;0.63;;;;;;;23.84;36.01;101766.41;5093963;28;20028;-80
2022/05/04 09:09:13;;;;;;;2.65;0.68;;;;;;;23.83;35.50;101778.78;5093533;28;20028;-80
2022/05/04 09:11:43;;;;;;;1.85;0.80;;;;;;;24.02;35.74;101775.00;5089402;28;20475;-78
2022/05/04 09:14:13;;;;;;;2.05;1.05;;;;;;;24.06;35.64;101778.66;5092493;28;20537;-80
2022/05/04 09:16:39;;;;;;;2.28;0.70;;;;;;;23.28;36.37;101783.94;5091847;28;20047;-88
2022/05/04 09:19:13;;;;;;;3.58;1.00;;;;;;;23.61;35.02;101791.63;5092172;28;20028;-85
2022/05/04 09:21:39;;;;;;;7.78;1.42;;;;;;;23.84;34.79;101785.94;5093121;28;20032;-80
2022/05/04 09:24:05;;;;;;;3.20;1.00;;;;;;;24.05;34.89;101789.03;5092424;28;20050;-80
2022/05/04 09:26:37;;;;;;;3.28;1.00;;;;;;;24.21;34.75;101786.03;5091903;28;20028;-85
2022/05/04 09:29:05;;;;;;;1.85;0.70;;;;;;;23.88;34.76;101797.16;5091997;28;20036;-80
2022/05/04 09:31:32;;;;;;;1.73;1.10;;;;;;;24.40;34.14;101795.41;5090561;28;20035;-80
2022/05/04 09:34:03;;;;;;;3.40;0.82;;;;;;;24.33;34.10;101794.19;5091645;28;20157;-80
2022/05/04 09:45:35;;;;;;;3.15;0.90;;;;;;;24.38;34.48;101793.00;5093027;28;20039;-80
2022/05/04 09:48:00;;;;;;;4.07;1.23;;;;;;;24.48;34.29;101783.94;5093171;28;20028;-79
2022/05/04 09:50:28;;;;;;;4.65;1.80;;;;;;;24.53;34.31;101785.59;5093219;28;20398;-80
2022/05/04 09:52:57;;;;;;;5.03;1.10;;;;;;;23.72;34.91;101788.97;5093444;28;20036;-79
2022/05/04 09:55:25;;;;;;;6.10;1.57;;;;;;;23.91;35.25;101786.06;5092794;28;20036;-79
2022/05/04 09:57:53;;;;;;;2.42;0.90;;;;;;;23.96;35.07;101785.72;5093159;28;20264;-87
2022/05/04 10:00:21;;;;;;;4.25;1.30;;;;;;;23.94;34.78;101788.06;5092980;28;20030;-78
2022/05/04 10:02:51;;;;;;;6.28;1.80;;;;;;;23.69;35.18;101781.38;5091318;28;20111;-80
2022/05/04 10:05:20;;;;;;;3.10;1.33;;;;;;;24.01;35.37;101781.78;5052779;28;20118;-78
2022/05/04 10:07:51;;;;;;;4.97;1.70;;;;;;;24.01;35.02;101784.56;5051354;28;20033;-80
2022/05/04 10:10:19;;;;;;;3.65;1.40;;;;;;;24.26;34.70;101780.09;5052646;28;20029;-78
2022/05/04 10:12:45;;;;;;;2.05;1.10;;;;;;;24.61;33.84;101781.69;5052969;28;20459;-78
2022/05/04 10:15:16;;;;;;;3.70;1.30;;;;;;;24.89;33.51;101781.94;5052674;28;20033;-87
2022/05/04 10:18:05;;;;;;;3.00;1.00;;;;;;;24.66;33.23;101781.34;5090276;28;20036;-79
2022/05/04 10:20:49;;;;;;;4.88;1.50;;;;;;;24.70;33.41;101775.78;5091905;28;20077;-80
2022/05/04 10:23:21;;;;;;;5.40;1.65;;;;;;;24.01;33.97;101790.16;5093018;28;20082;-80
2022/05/04 10:25:48;;;;;;;3.25;1.30;;;;;;;24.23;34.14;101782.84;5094513;28;20024;-82
2022/05/04 10:28:15;;;;;;;5.53;1.75;;;;;;;24.67;33.01;101780.16;5097155;28;20020;-79
2022/05/04 10:30:59;;;;;;;2.97;1.38;;;;;;;24.72;33.39;101782.59;5097066;28;20030;-83
2022/05/04 10:33:33;;;;;;;4.25;1.63;;;;;;;24.99;32.21;101776.84;5096903;28;20085;-79
2022/05/04 10:36:29;;;;;;;6.63;1.92;;;;;;;25.12;32.21;101769.78;5096887;28;20150;-86
2022/05/04 10:38:59;;;;;;;6.30;2.25;;;;;;;24.70;33.78;101771.00;5095469;28;20046;-78
2022/05/04 10:41:35;;;;;;;3.05;1.35;;;;;;;24.86;32.54;101779.13;5097107;28;20034;-78
2022/05/04 10:44:02;;;;;;;9.00;2.28;;;;;;;24.92;32.53;101778.38;5095338;28;20084;-79
2022/05/04 10:46:30;;;;;;;6.22;2.22;;;;;;;24.95;32.62;101782.41;5096171;28;20035;-89
2022/05/04 10:49:05;;;;;;;5.70;1.70;;;;;;;24.26;32.77;101782.91;5095321;28;20385;-78
2022/05/04 10:51:38;;;;;;;5.50;1.70;;;;;;;24.67;32.36;101782.16;5096998;28;20020;-79
2022/05/04 10:54:09;;;;;;;5.68;2.10;;;;;;;25.01;31.95;101782.84;5096877;28;20023;-78
2022/05/04 10:56:47;;;;;;;4.90;1.75;;;;;;;24.91;32.73;101779.56;5097006;28;20024;-78
2022/05/04 10:59:25;;;;;;;9.93;2.50;;;;;;;24.51;32.76;101788.78;5095329;28;20482;-79
2022/05/04 11:01:56;;;;;;;5.22;1.73;;;;;;;25.14;31.75;101778.59;5096584;28;20024;-79
2022/05/04 11:04:23;;;;;;;6.38;2.10;;;;;;;24.98;31.79;101780.81;5096669;28;20367;-79
2022/05/04 11:07:00;;;;;;;7.13;2.28;;;;;;;24.82;32.25;101790.28;5096507;28;20489;-78
2022/05/04 11:09:32;;;;;;;3.08;1.60;;;;;;;25.39;31.97;101778.75;5096449;28;20135;-79
2022/05/04 11:12:04;;;;;;;9.52;2.17;;;;;;;25.52;31.49;101779.25;5096479;28;20470;-88
2022/05/04 11:14:33;;;;;;;8.60;1.70;;;;;;;25.52;31.46;101782.84;5096280;28;20035;-79
2022/05/04 11:17:01;;;;;;;5.05;1.90;;;;;;;25.49;31.46;101768.84;5095945;28;20085;-78
2022/05/04 11:19:29;;;;;;;9.32;2.83;;;;;;;25.27;31.79;101779.88;5096438;28;20392;-89
2022/05/04 11:21:56;;;;;;;6.88;2.50;;;;;;;25.45;31.40;101772.41;5096261;28;20498;-79
2022/05/04 11:24:25;;;;;;;5.55;2.10;;;;;;;25.30;32.07;101787.50;5096211;28;20512;-85
2022/05/04 11:26:52;;;;;;;6.63;2.47;;;;;;;25.42;31.31;101778.78;5096334;28;20024;-81
2022/05/04 11:29:23;;;;;;;14.82;3.28;;;;;;;25.77;31.21;101777.44;5095926;28;20099;-89
2022/05/04 11:31:59;;;;;;;4.72;1.85;;;;;;;25.27;31.05;101793.06;5094403;28;20066;-80
2022/05/04 11:34:33;;;;;;;6.82;2.70;;;;;;;24.91;32.55;101793.53;5095595;28;20071;-81
2022/05/04 11:37:09;;;;;;;3.78;1.38;;;;;;;25.60;31.25;101780.88;5095569;28;20036;-80
2022/05/04 11:39:37;;;;;;;4.78;1.70;;;;;;;25.81;30.88;101802.63;5095464;28;20031;-79
2022/05/04 11:42:05;;;;;;;12.65;2.25;;;;;;;26.35;30.61;101793.25;5095997;28;20030;-80
2022/05/04 11:44:31;;;;;;;4.75;1.98;;;;;;;26.61;30.42;101796.94;5095757;28;20098;-86
2022/05/04 11:46:58;;;;;;;4.47;1.80;;;;;;;26.42;30.30;101801.69;5095068;28;20052;-82
2022/05/04 11:49:26;;;;;;;5.13;1.90;;;;;;;26.53;29.90;101799.75;5095076;28;20107;-80
2022/05/04 11:51:54;;;;;;;6.75;2.25;;;;;;;26.44;30.26;101812.50;5095107;28;20032;-79
2022/05/04 11:54:20;;;;;;;4.50;1.98;;;;;;;26.57;30.27;101812.94;5095459;28;20039;-80
2022/05/04 11:56:46;;;;;;;9.95;2.72;;;;;;;26.51;30.20;101810.53;5095450;28;20553;-80
2022/05/04 11:59:12;;;;;;;6.28;2.38;;;;;;;26.82;30.25;101813.78;5095547;28;20032;-85